Time;durP1;ratioP1;P1;durP2;ratioP2;P2;SDS_P1;SDS_P2;PMS_P1;PMS_P2;Temp;Humidity;BMP_temperature;BMP_pressure;BME280_temperature;BME280_humidity;BME280_pressure;Samples;Min_cycle;Max_cycle;Signal;HPM_P1;HPM_P2
2022/01/11 00:00:57;;;;;;;3.80;2.10;;;;;;;;;;5071111;28;20438;-67
2022/01/11 00:03:22;;;;;;;6.20;2.20;;;;;;;;;;5071426;28;20033;-67
2022/01/11 00:06:12;;;;;;;4.55;2.25;;;;;;;;;;5071711;28;20031;-68
2022/01/11 00:08:39;;;;;;;6.20;2.50;;;;;;;;;;5071315;28;20028;-66
2022/01/11 00:11:05;;;;;;;6.07;2.63;;;;;;;;;;5071244;28;20033;-67
2022/01/11 00:13:36;;;;;;;5.72;2.38;;;;;;;;;;5071287;28;20050;-68
2022/01/11 00:16:03;;;;;;;5.72;2.40;;;;;;;;;;5070971;28;20114;-68
2022/01/11 00:18:28;;;;;;;4.22;2.13;;;;;;;;;;5071229;28;20067;-66
2022/01/11 00:20:55;;;;;;;5.05;2.13;;;;;;;;;;5070839;28;20507;-67
2022/01/11 00:25:50;;;;;;;4.53;2.30;;;;;;;;;;5070928;28;20476;-68
2022/01/11 00:28:18;;;;;;;5.75;2.30;;;;;;;;;;5071004;28;20039;-66
2022/01/11 00:30:45;;;;;;;6.45;2.60;;;;;;;;;;5070657;28;20024;-66
2022/01/11 00:33:19;;;;;;;5.55;2.60;;;;;;;;;;5070933;28;20384;-66
2022/01/11 00:35:48;;;;;;;4.25;2.08;;;;;;;;;;5070903;28;20031;-66
2022/01/11 00:38:17;;;;;;;5.05;2.30;;;;;;;;;;5070754;28;20443;-67
2022/01/11 00:40:50;;;;;;;3.67;1.90;;;;;;;;;;5070364;28;20470;-66
2022/01/11 00:43:18;;;;;;;5.55;1.90;;;;;;;;;;5070786;28;20028;-66
2022/01/11 00:45:43;;;;;;;4.53;1.98;;;;;;;;;;5070551;28;20381;-66
2022/01/11 00:48:09;;;;;;;4.00;2.08;;;;;;;;;;5070801;28;20094;-67
2022/01/11 00:50:36;;;;;;;3.35;1.83;;;;;;;;;;5070474;28;20082;-68
2022/01/11 00:53:03;;;;;;;3.80;1.90;;;;;;;;;;5070433;28;20036;-68
2022/01/11 00:55:29;;;;;;;5.28;1.83;;;;;;;;;;5070515;28;20029;-67
2022/01/11 00:57:54;;;;;;;4.60;2.17;;;;;;;;;;5069088;28;20067;-66
2022/01/11 01:00:20;;;;;;;4.88;1.95;;;;;;;;;;5070005;28;20476;-67
2022/01/11 01:02:45;;;;;;;3.50;1.70;;;;;;;;;;5070372;28;20472;-68
2022/01/11 01:05:11;;;;;;;3.80;1.95;;;;;;;;;;5070135;28;20464;-66
2022/01/11 01:07:36;;;;;;;4.05;1.83;;;;;;;;;;5070316;28;20025;-68
2022/01/11 01:10:08;;;;;;;3.30;1.73;;;;;;;;;;5070247;28;20032;-67
2022/01/11 01:12:34;;;;;;;2.75;1.60;;;;;;;;;;5070219;28;20056;-68
2022/01/11 01:15:01;;;;;;;3.88;1.80;;;;;;;;;;5070023;28;20048;-68
2022/01/11 01:17:27;;;;;;;3.33;1.65;;;;;;;;;;5070034;28;20032;-68
2022/01/11 01:19:52;;;;;;;3.10;1.70;;;;;;;;;;5070458;28;20089;-68
2022/01/11 01:22:18;;;;;;;4.32;1.88;;;;;;;;;;5070231;28;20029;-66
2022/01/11 01:24:44;;;;;;;3.35;1.65;;;;;;;;;;5070280;28;20470;-67
2022/01/11 01:27:09;;;;;;;3.30;1.60;;;;;;;;;;5070153;28;20361;-66
2022/01/11 01:29:35;;;;;;;3.30;1.70;;;;;;;;;;5069728;28;20031;-68
2022/01/11 01:32:01;;;;;;;3.53;1.60;;;;;;;;;;5069819;28;20046;-67
2022/01/11 01:34:27;;;;;;;5.63;1.70;;;;;;;;;;5070085;28;20029;-67
2022/01/11 01:36:52;;;;;;;3.80;1.80;;;;;;;;;;5069979;28;20073;-67
2022/01/11 01:39:18;;;;;;;3.13;1.40;;;;;;;;;;5070172;28;20040;-67
2022/01/11 01:41:45;;;;;;;4.32;1.80;;;;;;;;;;5069983;28;20173;-67
2022/01/11 01:44:12;;;;;;;3.88;1.48;;;;;;;;;;5069856;28;20483;-67
2022/01/11 01:46:37;;;;;;;3.72;1.55;;;;;;;;;;5070027;28;20078;-66
2022/01/11 01:49:03;;;;;;;3.95;1.60;;;;;;;;;;5069882;28;20033;-67
2022/01/11 01:51:29;;;;;;;3.85;1.70;;;;;;;;;;5069567;28;20352;-68
2022/01/11 01:53:55;;;;;;;3.80;1.70;;;;;;;;;;5069846;28;20043;-67
2022/01/11 01:56:22;;;;;;;2.40;1.30;;;;;;;;;;5070013;28;20028;-66
2022/01/11 01:58:49;;;;;;;3.20;1.40;;;;;;;;;;5070006;28;20475;-66
2022/01/11 02:01:15;;;;;;;4.90;1.52;;;;;;;;;;5069551;28;20025;-67
2022/01/11 02:03:42;;;;;;;3.47;1.55;;;;;;;;;;5069726;28;20028;-66
2022/01/11 02:06:11;;;;;;;3.45;1.50;;;;;;;;;;5069556;28;20028;-68
2022/01/11 02:08:38;;;;;;;3.53;1.52;;;;;;;;;;5069748;28;20056;-68
2022/01/11 02:11:04;;;;;;;3.05;1.33;;;;;;;;;;5069807;28;20119;-67
2022/01/11 02:13:30;;;;;;;3.95;1.70;;;;;;;;;;5069753;28;20447;-67
2022/01/11 02:15:57;;;;;;;3.15;1.52;;;;;;;;;;5070883;28;20511;-67
2022/01/11 02:18:25;;;;;;;2.80;1.58;;;;;;;;;;5073377;28;20028;-68
2022/01/11 02:20:52;;;;;;;4.13;1.48;;;;;;;;;;5073090;28;20103;-67
2022/01/11 02:23:19;;;;;;;3.22;1.42;;;;;;;;;;5073320;28;20035;-66
2022/01/11 02:25:45;;;;;;;4.68;1.98;;;;;;;;;;5073154;28;20024;-67
2022/01/11 02:28:14;;;;;;;3.15;1.65;;;;;;;;;;5073770;28;20027;-66
2022/01/11 02:30:40;;;;;;;4.05;1.80;;;;;;;;;;5072911;28;20496;-67
2022/01/11 02:33:12;;;;;;;4.35;1.60;;;;;;;;;;5073544;28;20036;-67
2022/01/11 02:35:38;;;;;;;2.97;1.50;;;;;;;;;;5073277;28;20028;-68
2022/01/11 02:38:03;;;;;;;3.83;1.75;;;;;;;;;;5073161;28;20024;-68
2022/01/11 02:40:29;;;;;;;4.70;1.88;;;;;;;;;;5072778;28;20396;-66
2022/01/11 02:42:54;;;;;;;3.83;1.50;;;;;;;;;;5073462;28;20036;-69
2022/01/11 02:45:21;;;;;;;3.47;1.60;;;;;;;;;;5072931;28;20048;-66
2022/01/11 02:47:48;;;;;;;2.33;1.25;;;;;;;;;;5073002;28;20032;-68
2022/01/11 02:50:16;;;;;;;4.10;1.70;;;;;;;;;;5072982;28;20361;-67
2022/01/11 02:52:41;;;;;;;3.15;1.50;;;;;;;;;;5072878;28;20056;-68
2022/01/11 02:55:11;;;;;;;4.43;1.55;;;;;;;;;;5072746;28;20457;-69
2022/01/11 02:57:37;;;;;;;3.80;1.55;;;;;;;;;;5073062;28;20100;-67
2022/01/11 03:00:09;;;;;;;3.63;1.50;;;;;;;;;;5072587;28;20442;-67
2022/01/11 03:02:34;;;;;;;3.38;1.45;;;;;;;;;;5072578;28;20068;-67
2022/01/11 03:05:00;;;;;;;3.90;1.52;;;;;;;;;;5072472;28;20110;-67
2022/01/11 03:07:25;;;;;;;2.50;1.30;;;;;;;;;;5072701;28;20032;-68
2022/01/11 03:10:06;;;;;;;3.13;1.30;;;;;;;;;;5072469;28;20020;-68
2022/01/11 03:12:32;;;;;;;10.07;1.40;;;;;;;;;;5072184;28;20035;-69
2022/01/11 03:14:57;;;;;;;4.65;1.58;;;;;;;;;;5072088;28;20032;-67
2022/01/11 03:17:25;;;;;;;2.50;1.20;;;;;;;;;;5072163;28;20128;-67
2022/01/11 03:19:50;;;;;;;2.85;1.20;;;;;;;;;;5072257;28;20543;-67
2022/01/11 03:22:16;;;;;;;2.70;1.20;;;;;;;;;;5071905;28;20115;-69
2022/01/11 03:24:44;;;;;;;3.20;1.33;;;;;;;;;;5072299;28;20035;-67
2022/01/11 03:27:09;;;;;;;3.60;1.38;;;;;;;;;;5071854;28;20472;-67
2022/01/11 03:29:37;;;;;;;3.17;1.42;;;;;;;;;;5071894;28;20173;-67
2022/01/11 03:32:04;;;;;;;2.72;1.10;;;;;;;;;;5071615;28;20081;-67
2022/01/11 03:34:30;;;;;;;3.17;1.23;;;;;;;;;;5071981;28;20065;-67
2022/01/11 03:36:57;;;;;;;2.60;1.42;;;;;;;;;;5072014;28;20040;-67
2022/01/11 03:39:22;;;;;;;3.03;1.30;;;;;;;;;;5071990;28;20043;-67
2022/01/11 03:41:48;;;;;;;2.35;1.05;;;;;;;;;;5071669;28;20028;-67
2022/01/11 03:44:14;;;;;;;2.47;1.10;;;;;;;;;;5070305;28;20036;-67
2022/01/11 03:46:39;;;;;;;2.60;0.90;;;;;;;;;;5071777;28;20021;-67
2022/01/11 03:49:05;;;;;;;2.92;1.10;;;;;;;;;;5071603;28;20459;-67
2022/01/11 03:51:33;;;;;;;2.05;0.90;;;;;;;;;;5071415;28;20036;-67
2022/01/11 03:54:09;;;;;;;4.07;1.00;;;;;;;;;;5071661;28;20030;-67
2022/01/11 03:56:35;;;;;;;4.10;1.05;;;;;;;;;;5071676;28;20032;-67
2022/01/11 03:59:06;;;;;;;2.70;1.15;;;;;;;;;;5071709;28;20028;-67
2022/01/11 04:01:31;;;;;;;2.42;0.90;;;;;;;;;;5071753;28;20442;-67
2022/01/11 04:03:57;;;;;;;2.22;0.90;;;;;;;;;;5071415;28;20494;-67
2022/01/11 04:06:22;;;;;;;2.17;1.00;;;;;;;;;;5071380;28;20016;-67
2022/01/11 04:08:48;;;;;;;1.17;0.70;;;;;;;;;;5071317;28;20048;-67
2022/01/11 04:11:13;;;;;;;2.55;1.02;;;;;;;;;;5071179;28;20490;-66
2022/01/11 04:13:40;;;;;;;1.65;1.00;;;;;;;;;;5071569;28;20103;-68
2022/01/11 04:16:05;;;;;;;3.13;0.98;;;;;;;;;;5070921;28;20075;-68
2022/01/11 04:18:31;;;;;;;2.20;0.98;;;;;;;;;;5071187;28;20075;-68
2022/01/11 04:20:56;;;;;;;2.17;0.90;;;;;;;;;;5070985;28;20028;-68
2022/01/11 04:23:23;;;;;;;2.70;1.10;;;;;;;;;;5070934;28;20036;-67
2022/01/11 04:25:49;;;;;;;2.33;1.00;;;;;;;;;;5071261;28;20021;-67
2022/01/11 04:28:14;;;;;;;1.77;0.80;;;;;;;;;;5071124;28;20361;-67
2022/01/11 04:30:40;;;;;;;2.83;1.00;;;;;;;;;;5070620;28;20069;-66
2022/01/11 04:33:05;;;;;;;1.88;0.80;;;;;;;;;;5070841;28;20099;-67
2022/01/11 04:35:31;;;;;;;1.52;0.77;;;;;;;;;;5070780;28;20055;-66
2022/01/11 04:37:57;;;;;;;1.83;0.80;;;;;;;;;;5070260;28;20027;-68
2022/01/11 04:40:23;;;;;;;2.15;0.80;;;;;;;;;;5070474;28;20379;-68
2022/01/11 04:42:49;;;;;;;1.67;0.82;;;;;;;;;;5070872;28;20021;-67
2022/01/11 04:45:15;;;;;;;2.17;0.85;;;;;;;;;;5070833;28;20107;-68
2022/01/11 04:47:41;;;;;;;1.83;0.90;;;;;;;;;;5070684;28;20048;-67
2022/01/11 04:50:09;;;;;;;2.00;0.90;;;;;;;;;;5070557;28;20422;-68
2022/01/11 04:52:35;;;;;;;1.27;0.70;;;;;;;;;;5070304;28;20107;-68
2022/01/11 04:55:01;;;;;;;2.35;0.90;;;;;;;;;;5070329;28;20021;-67
2022/01/11 04:57:26;;;;;;;1.52;0.60;;;;;;;;;;5069274;28;20032;-67
2022/01/11 04:59:52;;;;;;;1.48;0.77;;;;;;;;;;5070366;28;20078;-67
2022/01/11 05:02:17;;;;;;;2.58;0.88;;;;;;;;;;5070677;28;20370;-66
2022/01/11 05:04:43;;;;;;;2.05;0.90;;;;;;;;;;5070405;28;20140;-67
2022/01/11 05:07:09;;;;;;;3.15;0.98;;;;;;;;;;5070184;28;20027;-67
2022/01/11 05:09:34;;;;;;;1.88;0.90;;;;;;;;;;5070638;28;20032;-66
2022/01/11 05:11:59;;;;;;;2.15;0.80;;;;;;;;;;5070152;28;20385;-68
2022/01/11 05:14:25;;;;;;;2.15;0.90;;;;;;;;;;5070279;28;20032;-68
2022/01/11 05:16:50;;;;;;;1.92;0.80;;;;;;;;;;5070157;28;20045;-68
2022/01/11 05:19:16;;;;;;;1.50;0.88;;;;;;;;;;5070245;28;20115;-66
2022/01/11 05:21:42;;;;;;;5.85;2.28;;;;;;;;;;5069958;28;20021;-67
2022/01/11 05:24:08;;;;;;;7.30;2.75;;;;;;;;;;5070172;28;20490;-67
2022/01/11 05:26:34;;;;;;;6.47;2.70;;;;;;;;;;5070175;28;20028;-67
2022/01/11 05:29:00;;;;;;;3.33;1.13;;;;;;;;;;5069943;28;20028;-66
2022/01/11 05:31:25;;;;;;;2.35;1.08;;;;;;;;;;5069813;28;20067;-67
2022/01/11 05:33:50;;;;;;;3.95;1.30;;;;;;;;;;5070036;28;20025;-68
2022/01/11 05:36:16;;;;;;;5.13;1.10;;;;;;;;;;5070129;28;20104;-68
2022/01/11 05:38:42;;;;;;;1.63;0.90;;;;;;;;;;5070127;28;20028;-67
2022/01/11 05:41:08;;;;;;;2.40;1.20;;;;;;;;;;5069885;28;20028;-68
2022/01/11 05:43:35;;;;;;;1.63;0.95;;;;;;;;;;5070257;28;20025;-68
2022/01/11 05:46:01;;;;;;;1.98;0.90;;;;;;;;;;5069829;28;20029;-67
2022/01/11 05:48:27;;;;;;;3.40;1.00;;;;;;;;;;5069963;28;20035;-66
2022/01/11 05:50:52;;;;;;;1.65;0.80;;;;;;;;;;5073176;28;20036;-68
2022/01/11 05:53:18;;;;;;;1.77;0.70;;;;;;;;;;5073873;28;20028;-69
2022/01/11 05:55:43;;;;;;;2.15;1.00;;;;;;;;;;5073970;28;20033;-69
2022/01/11 05:58:09;;;;;;;3.42;1.08;;;;;;;;;;5073942;28;20024;-67
2022/01/11 06:00:34;;;;;;;5.72;1.35;;;;;;;;;;5073782;28;20081;-68
2022/01/11 06:03:00;;;;;;;4.15;1.20;;;;;;;;;;5072217;28;20020;-68
2022/01/11 06:05:25;;;;;;;2.95;1.00;;;;;;;;;;5073475;28;20491;-69
2022/01/11 06:07:51;;;;;;;1.88;1.00;;;;;;;;;;5073888;28;20052;-68
2022/01/11 06:10:17;;;;;;;2.15;0.90;;;;;;;;;;5073694;28;20056;-68
2022/01/11 06:12:43;;;;;;;2.55;1.02;;;;;;;;;;5073556;28;20048;-67
2022/01/11 06:15:09;;;;;;;3.05;1.20;;;;;;;;;;5073428;28;20111;-67
2022/01/11 06:17:34;;;;;;;4.90;1.25;;;;;;;;;;5073112;28;20044;-66
2022/01/11 06:20:00;;;;;;;3.00;1.33;;;;;;;;;;5073492;28;20028;-67
2022/01/11 06:22:25;;;;;;;4.90;1.10;;;;;;;;;;5073368;28;20036;-68
2022/01/11 06:24:51;;;;;;;4.22;1.17;;;;;;;;;;5073343;28;20377;-67
2022/01/11 06:27:17;;;;;;;2.08;1.00;;;;;;;;;;5073463;28;20404;-66
2022/01/11 06:29:43;;;;;;;6.20;1.70;;;;;;;;;;5073106;28;20028;-69
2022/01/11 06:32:08;;;;;;;3.25;1.38;;;;;;;;;;5072857;28;20279;-67
2022/01/11 06:34:34;;;;;;;4.05;1.25;;;;;;;;;;5073232;28;20097;-67
2022/01/11 06:37:00;;;;;;;4.85;1.20;;;;;;;;;;5073076;28;20032;-67
2022/01/11 06:39:26;;;;;;;5.25;1.40;;;;;;;;;;5073136;28;20036;-68
2022/01/11 06:41:51;;;;;;;4.97;1.80;;;;;;;;;;5073205;28;20530;-66
2022/01/11 06:44:17;;;;;;;9.30;2.35;;;;;;;;;;5072908;28;20079;-67
2022/01/11 06:46:42;;;;;;;8.30;2.15;;;;;;;;;;5073031;28;20016;-67
2022/01/11 06:49:08;;;;;;;4.18;1.27;;;;;;;;;;5072841;28;20056;-67
2022/01/11 06:51:35;;;;;;;4.38;1.45;;;;;;;;;;5072903;28;20032;-67
2022/01/11 06:54:00;;;;;;;3.95;1.17;;;;;;;;;;5072718;28;20032;-66
2022/01/11 06:56:26;;;;;;;3.75;1.33;;;;;;;;;;5072763;28;20036;-67
2022/01/11 06:58:51;;;;;;;9.25;1.40;;;;;;;;;;5072709;28;20556;-67
2022/01/11 07:01:17;;;;;;;5.85;1.50;;;;;;;;;;5072186;28;20042;-67
2022/01/11 07:03:42;;;;;;;4.57;1.30;;;;;;;;;;5072440;28;20029;-66
2022/01/11 07:06:08;;;;;;;2.90;1.15;;;;;;;;;;5072461;28;20024;-68
2022/01/11 07:08:33;;;;;;;1.70;1.10;;;;;;;;;;5072595;28;20060;-67
2022/01/11 07:10:59;;;;;;;2.05;1.10;;;;;;;;;;5072680;28;20032;-67
2022/01/11 07:13:25;;;;;;;4.63;1.20;;;;;;;;;;5072458;28;20020;-68
2022/01/11 07:15:50;;;;;;;1.85;0.93;;;;;;;;;;5072245;28;20108;-68
2022/01/11 07:18:16;;;;;;;2.90;1.23;;;;;;;;;;5072562;28;20108;-66
2022/01/11 07:20:45;;;;;;;3.00;1.27;;;;;;;;;;5072796;28;20040;-68
2022/01/11 07:23:11;;;;;;;3.78;1.30;;;;;;;;;;5072197;28;20488;-67
2022/01/11 07:25:37;;;;;;;4.28;1.20;;;;;;;;;;5070903;28;20035;-67
2022/01/11 07:28:04;;;;;;;4.97;1.42;;;;;;;;;;5070845;28;20506;-66
2022/01/11 07:30:30;;;;;;;5.15;1.20;;;;;;;;;;5071951;28;20033;-68
2022/01/11 07:32:56;;;;;;;3.80;1.20;;;;;;;;;;5071869;28;20031;-66
2022/01/11 07:35:23;;;;;;;2.80;1.40;;;;;;;;;;5072301;28;20039;-67
2022/01/11 07:37:49;;;;;;;2.83;1.33;;;;;;;;;;5072163;28;20020;-66
2022/01/11 07:40:15;;;;;;;3.95;1.50;;;;;;;;;;5072058;28;20103;-68
2022/01/11 07:42:40;;;;;;;2.83;1.40;;;;;;;;;;5071639;28;20365;-65
2022/01/11 07:45:06;;;;;;;4.18;1.40;;;;;;;;;;5071630;28;20480;-66
2022/01/11 07:47:32;;;;;;;4.10;1.40;;;;;;;;;;5071692;28;20020;-66
2022/01/11 07:49:58;;;;;;;3.50;1.40;;;;;;;;;;5071748;28;20016;-67
2022/01/11 07:52:23;;;;;;;3.25;1.50;;;;;;;;;;5071558;28;20085;-66
2022/01/11 07:54:49;;;;;;;3.63;1.45;;;;;;;;;;5071764;28;20489;-67
2022/01/11 07:57:14;;;;;;;5.25;1.40;;;;;;;;;;5072085;28;20024;-66
2022/01/11 07:59:40;;;;;;;3.05;1.30;;;;;;;;;;5071401;28;20028;-70
2022/01/11 08:02:05;;;;;;;6.72;1.48;;;;;;;;;;5071323;28;20445;-66
2022/01/11 08:04:31;;;;;;;4.32;1.80;;;;;;;;;;5071458;28;20016;-66
2022/01/11 08:07:05;;;;;;;4.00;1.30;;;;;;;;;;5071203;28;20033;-65
2022/01/11 08:09:31;;;;;;;3.55;1.35;;;;;;;;;;5071530;28;20025;-67
2022/01/11 08:11:58;;;;;;;5.25;1.52;;;;;;;;;;5071374;28;20039;-68
2022/01/11 08:14:24;;;;;;;2.63;1.40;;;;;;;;;;5070170;28;20039;-67
2022/01/11 08:16:50;;;;;;;8.25;1.90;;;;;;;;;;5070841;28;20416;-68
2022/01/11 08:19:15;;;;;;;5.53;2.25;;;;;;;;;;5071257;28;20020;-68
2022/01/11 08:21:41;;;;;;;6.50;2.20;;;;;;;;;;5071258;28;20025;-67
2022/01/11 08:24:07;;;;;;;9.25;2.10;;;;;;;;;;5070884;28;20030;-66
2022/01/11 08:26:33;;;;;;;7.82;2.72;;;;;;;;;;5071353;28;20035;-68
2022/01/11 08:28:58;;;;;;;5.68;2.70;;;;;;;;;;5071316;28;20020;-67
2022/01/11 08:31:23;;;;;;;5.22;2.05;;;;;;;;;;5070853;28;20119;-67
2022/01/11 08:33:49;;;;;;;10.10;2.42;;;;;;;;;;5070497;28;20024;-68
2022/01/11 08:36:15;;;;;;;4.43;2.33;;;;;;;;;;5070689;28;20387;-68
2022/01/11 08:38:40;;;;;;;7.53;2.40;;;;;;;;;;5069468;28;20119;-68
2022/01/11 08:41:07;;;;;;;9.15;2.55;;;;;;;;;;5070912;28;20500;-68
2022/01/11 08:43:32;;;;;;;8.18;2.42;;;;;;;;;;5070602;28;20028;-68
2022/01/11 08:45:59;;;;;;;6.13;2.15;;;;;;;;;;5070551;28;20036;-70
2022/01/11 08:48:24;;;;;;;8.52;2.35;;;;;;;;;;5069817;28;20031;-69
2022/01/11 08:50:53;;;;;;;11.15;3.90;;;;;;;;;;5070077;28;20426;-68
2022/01/11 08:53:20;;;;;;;10.52;4.03;;;;;;;;;;5068380;28;20035;-68
2022/01/11 08:55:45;;;;;;;17.85;5.15;;;;;;;;;;5069656;28;20023;-68
2022/01/11 08:58:11;;;;;;;14.27;5.07;;;;;;;;;;5070346;28;20382;-68
2022/01/11 09:00:36;;;;;;;15.30;4.90;;;;;;;;;;5069571;28;20044;-66
2022/01/11 09:03:02;;;;;;;16.85;4.68;;;;;;;;;;5070374;28;20593;-68
2022/01/11 09:05:27;;;;;;;11.68;3.90;;;;;;;;;;5070410;28;20118;-68
2022/01/11 09:07:52;;;;;;;8.05;3.38;;;;;;;;;;5070231;28;20017;-69
2022/01/11 09:10:18;;;;;;;7.65;3.17;;;;;;;;;;5070272;28;20035;-69
2022/01/11 09:12:45;;;;;;;8.48;3.38;;;;;;;;;;5070012;28;20383;-68
2022/01/11 09:15:12;;;;;;;10.80;3.30;;;;;;;;;;5070026;28;20056;-68
2022/01/11 09:17:37;;;;;;;8.40;3.50;;;;;;;;;;5070159;28;20041;-69
2022/01/11 09:20:05;;;;;;;8.15;3.40;;;;;;;;;;5070278;28;20029;-69
2022/01/11 09:22:31;;;;;;;10.25;3.35;;;;;;;;;;5070208;28;20064;-69
2022/01/11 09:24:56;;;;;;;9.43;3.40;;;;;;;;;;5069722;28;20063;-69
2022/01/11 09:27:22;;;;;;;8.90;3.60;;;;;;;;;;5069892;28;20020;-68
2022/01/11 09:29:48;;;;;;;11.48;5.13;;;;;;;;;;5070327;28;20046;-70
2022/01/11 09:32:14;;;;;;;16.23;7.45;;;;;;;;;;5069326;28;20590;-69
2022/01/11 09:34:41;;;;;;;15.85;7.70;;;;;;;;;;5067727;28;20017;-69
2022/01/11 09:37:09;;;;;;;14.35;7.10;;;;;;;;;;5071175;28;20121;-68
2022/01/11 09:39:36;;;;;;;13.13;6.53;;;;;;;;;;5070124;28;20106;-68
2022/01/11 09:42:05;;;;;;;12.73;5.60;;;;;;;;;;5069468;28;20035;-69
2022/01/11 09:44:32;;;;;;;15.43;5.47;;;;;;;;;;5069780;28;20195;-68
2022/01/11 09:46:58;;;;;;;13.07;5.18;;;;;;;;;;5069832;28;20028;-68
2022/01/11 09:49:24;;;;;;;12.20;5.15;;;;;;;;;;5068425;28;20038;-68
2022/01/11 09:51:51;;;;;;;12.10;5.05;;;;;;;;;;5069776;28;20391;-68
2022/01/11 09:54:19;;;;;;;10.57;4.68;;;;;;;;;;5069761;28;20029;-69
2022/01/11 09:56:45;;;;;;;10.63;4.15;;;;;;;;;;5069098;28;20020;-67
2022/01/11 09:59:10;;;;;;;13.75;4.40;;;;;;;;;;5069786;28;20402;-69
2022/01/11 10:01:36;;;;;;;12.27;4.25;;;;;;;;;;5069759;28;20039;-68
2022/01/11 10:04:08;;;;;;;10.98;3.85;;;;;;;;;;5069672;28;20032;-70
2022/01/11 10:06:37;;;;;;;11.82;4.25;;;;;;;;;;5069755;28;20025;-68
2022/01/11 10:09:18;;;;;;;8.95;3.40;;;;;;;;;;5069762;28;20048;-69
2022/01/11 10:11:47;;;;;;;10.98;3.25;;;;;;;;;;5069706;28;20496;-68
2022/01/11 10:14:17;;;;;;;9.52;3.42;;;;;;;;;;5069166;28;20039;-68
2022/01/11 10:16:42;;;;;;;8.07;3.85;;;;;;;;;;5069371;28;20455;-68
2022/01/11 10:19:20;;;;;;;21.35;9.52;;;;;;;;;;5069597;28;20108;-68
2022/01/11 10:21:47;;;;;;;10.52;5.28;;;;;;;;;;5069520;28;20510;-68
2022/01/11 10:24:42;;;;;;;9.07;3.40;;;;;;;;;;5069478;28;20056;-68
2022/01/11 10:27:25;;;;;;;10.20;4.43;;;;;;;;;;5069528;28;20089;-68
2022/01/11 10:30:03;;;;;;;8.18;3.92;;;;;;;;;;5069306;28;20209;-68
2022/01/11 10:32:30;;;;;;;9.13;3.45;;;;;;;;;;5069393;28;20101;-69
2022/01/11 10:35:07;;;;;;;9.07;3.50;;;;;;;;;;5068972;28;20081;-69
2022/01/11 10:37:44;;;;;;;7.32;3.38;;;;;;;;;;5071652;28;20025;-69
2022/01/11 10:40:16;;;;;;;7.43;3.55;;;;;;;;;;5073676;28;20104;-69
2022/01/11 10:43:20;;;;;;;7.57;3.20;;;;;;;;;;5073207;28;20036;-68
2022/01/11 10:45:49;;;;;;;6.40;3.25;;;;;;;;;;5072882;28;20462;-68
2022/01/11 10:48:17;;;;;;;7.90;3.50;;;;;;;;;;5073158;28;20082;-68
2022/01/11 10:50:46;;;;;;;9.30;3.47;;;;;;;;;;5072727;28;20055;-68
2022/01/11 10:53:14;;;;;;;9.02;3.67;;;;;;;;;;5072645;28;20052;-68
2022/01/11 10:55:41;;;;;;;6.15;2.80;;;;;;;;;;5072773;28;20021;-68
2022/01/11 10:58:09;;;;;;;6.57;2.65;;;;;;;;;;5072930;28;20054;-68
2022/01/11 11:00:36;;;;;;;5.95;2.10;;;;;;;;;;5072735;28;20034;-68
2022/01/11 11:03:05;;;;;;;5.25;2.22;;;;;;;;;;5073225;28;20025;-68
2022/01/11 11:05:37;;;;;;;4.13;2.03;;;;;;;;;;5072859;28;20078;-68
2022/01/11 11:08:09;;;;;;;8.25;2.30;;;;;;;;;;5072618;28;20093;-68
2022/01/11 11:10:43;;;;;;;5.53;2.15;;;;;;;;;;5072366;28;20040;-68
2022/01/11 11:13:15;;;;;;;6.00;2.20;;;;;;;;;;5072577;28;20020;-68
2022/01/11 11:15:40;;;;;;;6.47;1.95;;;;;;;;;;5072226;28;20372;-67
2022/01/11 11:18:31;;;;;;;7.05;1.90;;;;;;;;;;5072554;28;20031;-68
2022/01/11 11:21:12;;;;;;;5.22;2.40;;;;;;;;;;5072366;28;20033;-69
2022/01/11 11:23:37;;;;;;;;;;;;;;;;;;5072525;28;20111;-68
2022/01/11 11:26:03;;;;;;;8.55;2.50;;;;;;;;;;5072174;28;19991;-68
2022/01/11 11:28:29;;;;;;;6.30;2.40;;;;;;;;;;5072195;28;20027;-68
2022/01/11 11:30:56;;;;;;;6.85;2.53;;;;;;;;;;5071885;28;20032;-69
2022/01/11 11:33:22;;;;;;;7.43;2.50;;;;;;;;;;5072147;28;20271;-67
2022/01/11 11:35:50;;;;;;;8.63;2.80;;;;;;;;;;5072058;28;20486;-69
2022/01/11 11:38:16;;;;;;;5.78;2.28;;;;;;;;;;5072346;28;20107;-68
2022/01/11 11:40:43;;;;;;;6.75;2.28;;;;;;;;;;5071933;28;20033;-69
2022/01/11 11:43:11;;;;;;;5.32;2.28;;;;;;;;;;5071740;28;20400;-68
2022/01/11 11:45:38;;;;;;;5.35;2.13;;;;;;;;;;5071770;28;20641;-68
2022/01/11 11:48:09;;;;;;;4.63;2.55;;;;;;;;;;5071863;28;20017;-68
2022/01/11 11:50:47;;;;;;;6.55;2.45;;;;;;;;;;5071894;28;20046;-67
2022/01/11 11:53:26;;;;;;;5.68;2.40;;;;;;;;;;5071802;28;20195;-68
2022/01/11 11:56:25;;;;;;;6.60;2.38;;;;;;;;;;5072223;28;20032;-68
2022/01/11 11:58:56;;;;;;;8.45;2.25;;;;;;;;;;5071417;28;20442;-69
2022/01/11 12:01:49;;;;;;;4.63;2.05;;;;;;;;;;5071544;28;20544;-69
2022/01/11 12:04:21;;;;;;;4.47;1.90;;;;;;;;;;5069489;28;20295;-69
2022/01/11 12:06:47;;;;;;;7.20;2.08;;;;;;;;;;5071409;28;20094;-69
2022/01/11 12:09:18;;;;;;;4.80;2.15;;;;;;;;;;5071540;28;20028;-69
2022/01/11 12:11:46;;;;;;;3.83;1.90;;;;;;;;;;5071243;28;20037;-68
2022/01/11 12:14:35;;;;;;;4.22;1.80;;;;;;;;;;5070844;28;20111;-68
2022/01/11 12:17:16;;;;;;;4.65;1.80;;;;;;;;;;5071190;28;20050;-69
2022/01/11 12:19:43;;;;;;;;;;;;;;;;;;5071650;28;20020;-67
2022/01/11 12:22:08;;;;;;;3.15;1.20;;;;;;;;;;5070075;28;19913;-68
2022/01/11 12:24:40;;;;;;;4.13;1.50;;;;;;;;;;5071469;28;20029;-68
2022/01/11 12:27:10;;;;;;;4.93;2.40;;;;;;;;;;5071043;28;20052;-68
2022/01/11 12:29:37;;;;;;;11.05;4.38;;;;;;;;;;5070810;28;20040;-69
2022/01/11 12:32:09;;;;;;;7.90;3.55;;;;;;;;;;5071051;28;20028;-68
2022/01/11 12:34:50;;;;;;;14.70;5.35;;;;;;;;;;5070601;28;20021;-68
2022/01/11 12:37:40;;;;;;;16.90;4.75;;;;;;;;;;5070984;28;20031;-69
2022/01/11 12:40:12;;;;;;;9.48;3.30;;;;;;;;;;5065826;28;20503;-68
2022/01/11 12:42:50;;;;;;;11.32;3.72;;;;;;;;;;5071142;28;20033;-69
2022/01/11 12:47:47;;;;;;;6.30;2.20;;;;;;;;;;5070494;28;20447;-69
2022/01/11 12:50:17;;;;;;;7.40;2.22;;;;;;;;;;5070480;28;20056;-69
2022/01/11 12:52:43;;;;;;;4.20;1.63;;;;;;;;;;5070398;28;20422;-69
2022/01/11 12:55:11;;;;;;;7.90;1.95;;;;;;;;;;5070272;28;20025;-69
2022/01/11 12:57:37;;;;;;;7.40;2.00;;;;;;;;;;5069190;28;20107;-69
2022/01/11 13:00:12;;;;;;;4.32;1.70;;;;;;;;;;5069702;28;20036;-69
2022/01/11 13:02:39;;;;;;;3.53;1.30;;;;;;;;;;5070433;28;20025;-68
2022/01/11 13:05:10;;;;;;;2.70;1.30;;;;;;;;;;5070206;28;20090;-68
2022/01/11 13:07:42;;;;;;;3.97;1.35;;;;;;;;;;5070311;28;20029;-67
2022/01/11 13:10:12;;;;;;;3.38;1.40;;;;;;;;;;5070394;28;20031;-68
2022/01/11 13:13:21;;;;;;;4.55;1.50;;;;;;;;;;5070369;28;20033;-67
2022/01/11 13:15:49;;;;;;;5.25;1.80;;;;;;;;;;5069481;28;20040;-68
2022/01/11 13:18:18;;;;;;;5.53;1.60;;;;;;;;;;5070664;28;20180;-69
2022/01/11 13:20:48;;;;;;;5.28;1.40;;;;;;;;;;5070289;28;20024;-68
2022/01/11 13:23:32;;;;;;;5.97;1.50;;;;;;;;;;5070169;28;20020;-68
2022/01/11 13:26:11;;;;;;;3.15;1.33;;;;;;;;;;5070166;28;20028;-69
2022/01/11 13:28:55;;;;;;;3.13;1.40;;;;;;;;;;5070329;28;20533;-68
2022/01/11 13:31:29;;;;;;;8.38;1.50;;;;;;;;;;5070140;28;20036;-68
2022/01/11 13:34:02;;;;;;;2.95;1.30;;;;;;;;;;5070432;28;20487;-70
2022/01/11 13:36:30;;;;;;;4.13;1.40;;;;;;;;;;5070338;28;20134;-69
2022/01/11 13:39:10;;;;;;;5.72;1.15;;;;;;;;;;5069911;28;20025;-69
2022/01/11 13:41:46;;;;;;;1.77;1.10;;;;;;;;;;5069829;28;20149;-69
2022/01/11 13:44:14;;;;;;;3.17;1.27;;;;;;;;;;5069983;28;20112;-68
2022/01/11 13:46:50;;;;;;;6.97;1.10;;;;;;;;;;5070040;28;20082;-68
2022/01/11 13:49:47;;;;;;;2.63;1.20;;;;;;;;;;5070115;28;20436;-68
2022/01/11 13:52:15;;;;;;;4.15;1.20;;;;;;;;;;5069817;28;20108;-68
2022/01/11 13:54:52;;;;;;;2.55;1.27;;;;;;;;;;5069647;28;20028;-68
2022/01/11 13:57:23;;;;;;;4.72;1.33;;;;;;;;;;5069854;28;20047;-68
2022/01/11 14:00:00;;;;;;;4.53;1.23;;;;;;;;;;5069462;28;20027;-67
2022/01/11 14:02:27;;;;;;;3.55;1.65;;;;;;;;;;5069769;28;20036;-67
2022/01/11 14:05:16;;;;;;;3.47;1.50;;;;;;;;;;5069518;28;20029;-67
2022/01/11 14:07:51;;;;;;;8.00;2.03;;;;;;;;;;5069810;28;20025;-68
2022/01/11 14:10:17;;;;;;;3.47;1.70;;;;;;;;;;5069522;28;20025;-68
2022/01/11 14:12:52;;;;;;;7.20;2.53;;;;;;;;;;5071911;28;20032;-67
2022/01/11 14:15:21;;;;;;;8.15;2.92;;;;;;;;;;5072996;28;20032;-67
2022/01/11 14:17:47;;;;;;;3.22;1.67;;;;;;;;;;5073409;28;20445;-67
2022/01/11 14:20:23;;;;;;;6.60;2.20;;;;;;;;;;5073581;28;20028;-67
2022/01/11 14:22:52;;;;;;;7.50;2.33;;;;;;;;;;5073515;28;20107;-67
2022/01/11 14:25:29;;;;;;;3.80;1.88;;;;;;;;;;5073314;28;20082;-69
2022/01/11 14:28:13;;;;;;;7.45;2.33;;;;;;;;;;5073411;28;20255;-68
2022/01/11 14:30:55;;;;;;;9.20;2.10;;;;;;;;;;5072845;28;20020;-68
2022/01/11 14:33:25;;;;;;;5.25;2.40;;;;;;;;;;5073225;28;20518;-68
2022/01/11 14:36:03;;;;;;;6.63;3.88;;;;;;;;;;5072948;28;20028;-68
2022/01/11 14:38:50;;;;;;;3.00;1.52;;;;;;;;;;5073318;28;20439;-67
2022/01/11 14:41:38;;;;;;;3.92;1.92;;;;;;;;;;5073198;28;20039;-67
2022/01/11 14:44:24;;;;;;;2.72;1.60;;;;;;;;;;5072952;28;20024;-67
2022/01/11 14:46:51;;;;;;;4.63;2.13;;;;;;;;;;5072874;28;20012;-68
2022/01/11 14:49:22;;;;;;;4.88;1.50;;;;;;;;;;5072961;28;20032;-68
2022/01/11 14:51:54;;;;;;;2.67;1.20;;;;;;;;;;5071522;28;20036;-67
2022/01/11 14:54:26;;;;;;;4.53;1.60;;;;;;;;;;5072834;28;20229;-68
2022/01/11 14:56:54;;;;;;;5.25;2.20;;;;;;;;;;5072988;28;20028;-68